Lake, Michigan
Current Conditions -  °F | °C
As of 7:38 AM on Saturday 25 Oct 2014 (Local Time) from KMOP Reporting Station
Haze Haze  
Wind Chill: 46°   Ceiling: Unl
Heat Index: 48°   Visibility: 5mi
Dew Point: 47°   Wind: 5mph
Humidity: 95%   Direction: 220°SW
Pressure: 29.78"   Gusts: NA
Location:  43.85°N, 85.01°W
Report Text: KMOP 251138Z AUTO 22004KT 5SM BR SCT012 09/08 A2978 RMK AO2 T00900082
Loading
Personal Weather Stations






























Interactive Weather Map New forecast layout! Learn more

10-Day Weather Forecast

Advertisements
Track Severe Weather on mobile